Fairbank, Iowa
Current Conditions -  °F | °C
As of 1:55 AM on Friday 31 Oct 2014 (Local Time) from KOLZ Reporting Station
Overcast Overcast  
Wind Chill: 25°   Ceiling: 4500
Heat Index: 37°   Visibility: 10mi
Dew Point: 21°   Wind: 29mph
Humidity: 52%   Direction: 340°NNW
Pressure: 30.24"   Gusts: 40mph
Location:  42.64°N, 92.05°W
Report Text: KOLZ 310655Z AUTO 34025G35KT 10SM FEW036 OVC045 03/M06 A3024 RMK AO2
Loading
Personal Weather Stations






























Interactive Weather Map
Tropical Storm Tracking
New forecast layout! Learn more

10-Day Weather Forecast

Advertisements
Track Severe Weather on mobile